KFVE 170853Z AUTO 00000KT 10SM CLR 10/07 A3010 RMK AO2 SLP191 T01000072 53001